Time;durP1;ratioP1;P1;durP2;ratioP2;P2;SDS_P1;SDS_P2;PMS_P1;PMS_P2;Temp;Humidity;BMP_temperature;BMP_pressure;BME280_temperature;BME280_humidity;BME280_pressure;Samples;Min_cycle;Max_cycle;Signal;HPM_P1;HPM_P2
2021/03/06 00:00:01;;;;;;;49.75;38.50;;;21.30;56.80;;;;;;5086945;28;20511;-61
2021/03/06 00:02:27;;;;;;;51.03;38.30;;;21.30;56.80;;;;;;5093050;28;20028;-60
2021/03/06 00:04:53;;;;;;;52.15;35.25;;;21.30;56.80;;;;;;5092967;28;20488;-60
2021/03/06 00:07:19;;;;;;;47.72;33.28;;;21.30;56.80;;;;;;5093024;28;20024;-60
2021/03/06 00:09:45;;;;;;;40.55;31.90;;;21.30;56.80;;;;;;5092897;28;20035;-62
2021/03/06 00:12:11;;;;;;;42.65;30.90;;;21.30;56.80;;;;;;5074928;28;20126;-61
2021/03/06 00:14:37;;;;;;;47.70;30.65;;;21.30;56.80;;;;;;5074875;28;20024;-61
2021/03/06 00:17:04;;;;;;;38.72;30.77;;;21.30;56.70;;;;;;5093031;28;20028;-61
2021/03/06 00:19:30;;;;;;;37.92;28.38;;;21.30;56.80;;;;;;5092629;28;20040;-60
2021/03/06 00:21:56;;;;;;;39.08;29.33;;;21.30;56.70;;;;;;5075082;28;20489;-61
2021/03/06 00:24:22;;;;;;;37.38;27.08;;;21.30;56.70;;;;;;5092776;28;20028;-60
2021/03/06 00:26:48;;;;;;;34.42;26.10;;;21.30;56.70;;;;;;5092716;28;20048;-60
2021/03/06 00:29:15;;;;;;;41.05;25.25;;;21.30;56.70;;;;;;5092514;28;20032;-61
2021/03/06 00:31:41;;;;;;;37.45;25.42;;;21.30;56.70;;;;;;5091858;28;20034;-60
2021/03/06 00:34:08;;;;;;;39.63;25.98;;;21.30;56.70;;;;;;5090378;28;20450;-60
2021/03/06 00:36:34;;;;;;;40.17;24.60;;;21.30;56.60;;;;;;5089250;28;20107;-63
2021/03/06 00:39:00;;;;;;;36.95;25.50;;;21.20;56.60;;;;;;5090330;28;20028;-63
2021/03/06 00:41:27;;;;;;;40.00;24.33;;;21.20;56.60;;;;;;5089862;28;20020;-63
2021/03/06 00:43:54;;;;;;;34.95;24.10;;;21.30;56.60;;;;;;5091268;28;20032;-63
2021/03/06 00:46:20;;;;;;;31.48;24.40;;;21.30;56.60;;;;;;5075925;28;20032;-64
2021/03/06 00:48:46;;;;;;;33.05;22.95;;;21.30;57.20;;;;;;5094852;28;20024;-63
2021/03/06 00:51:12;;;;;;;34.08;22.77;;;21.30;56.60;;;;;;5076831;28;20024;-63
2021/03/06 00:53:38;;;;;;;30.77;22.55;;;21.30;56.60;;;;;;5076352;28;20043;-63
2021/03/06 00:56:05;;;;;;;32.15;22.90;;;21.20;56.60;;;;;;5095032;28;20019;-63
2021/03/06 00:58:35;;;;;;;33.28;22.88;;;21.20;56.60;;;;;;5094037;28;20494;-63
2021/03/06 01:01:03;;;;;;;30.75;22.85;;;21.20;56.60;;;;;;5099606;28;20063;-63
2021/03/06 01:03:29;;;;;;;32.88;22.15;;;21.30;56.60;;;;;;5092175;28;20020;-63
2021/03/06 01:05:55;;;;;;;30.55;21.58;;;21.20;56.60;;;;;;5093867;28;20024;-63
2021/03/06 01:08:21;;;;;;;31.65;22.13;;;21.30;56.60;;;;;;5077127;28;20068;-63
2021/03/06 01:10:47;;;;;;;34.60;22.17;;;21.30;56.60;;;;;;5095452;28;20032;-63
2021/03/06 01:13:14;;;;;;;24.98;20.50;;;21.30;56.60;;;;;;5094706;28;20028;-63
2021/03/06 01:15:40;;;;;;;31.77;21.25;;;21.30;56.60;;;;;;5094995;28;20022;-63
2021/03/06 01:18:07;;;;;;;32.28;22.05;;;21.20;56.60;;;;;;5093587;28;20535;-63
2021/03/06 01:20:34;;;;;;;27.35;20.02;;;21.30;56.60;;;;;;5094944;28;20104;-63
2021/03/06 01:23:00;;;;;;;31.75;20.30;;;21.20;56.60;;;;;;5094619;28;20032;-62
2021/03/06 01:25:26;;;;;;;32.50;20.58;;;21.20;56.60;;;;;;5095325;28;20016;-63
2021/03/06 01:27:52;;;;;;;30.02;20.38;;;21.20;56.60;;;;;;5095142;28;20470;-62
2021/03/06 01:30:20;;;;;;;33.90;20.20;;;21.20;56.60;;;;;;5095195;28;20028;-62
2021/03/06 01:32:46;;;;;;;31.60;20.38;;;21.20;56.50;;;;;;5076523;28;20089;-63
2021/03/06 01:35:13;;;;;;;28.67;20.38;;;21.20;56.50;;;;;;5094649;28;20089;-62
2021/03/06 01:37:40;;;;;;;28.77;20.63;;;21.20;56.50;;;;;;5095091;28;20031;-63
2021/03/06 01:40:12;;;;;;;30.30;20.90;;;21.20;56.50;;;;;;5094850;28;20086;-62
2021/03/06 01:42:38;;;;;;;33.58;19.35;;;21.20;56.50;;;;;;5094860;28;20517;-62
2021/03/06 01:45:09;;;;;;;25.52;18.33;;;21.20;56.50;;;;;;5094637;28;20036;-63
2021/03/06 01:47:36;;;;;;;;;;;21.20;56.50;;;;;;5095109;28;20047;-62
2021/03/06 01:50:04;;;;;;;24.08;18.48;;;21.20;56.60;;;;;;5094929;28;19930;-63
2021/03/06 01:52:30;;;;;;;28.75;19.05;;;21.30;56.40;;;;;;5093669;28;20539;-63
2021/03/06 01:54:57;;;;;;;30.20;18.30;;;21.30;56.40;;;;;;5094584;28;20074;-63
2021/03/06 01:57:27;;;;;;;31.35;18.38;;;21.20;56.40;;;;;;5094672;28;20070;-63
2021/03/06 01:59:53;;;;;;;24.20;18.27;;;21.20;56.50;;;;;;5094557;28;20024;-63
2021/03/06 02:02:20;;;;;;;29.83;18.42;;;21.20;56.50;;;;;;5087960;28;20017;-63
2021/03/06 02:04:46;;;;;;;26.90;17.90;;;21.20;56.60;;;;;;5092268;28;20734;-62
2021/03/06 02:07:12;;;;;;;26.35;16.83;;;21.20;56.50;;;;;;5076404;28;20116;-63
2021/03/06 02:09:38;;;;;;;28.02;18.23;;;21.20;56.60;;;;;;5094176;28;20032;-63
2021/03/06 02:12:22;;;;;;;31.88;17.48;;;21.20;56.50;;;;;;5094508;28;20118;-63
2021/03/06 02:15:26;;;;;;;29.08;17.73;;;21.20;56.60;;;;;;5093705;28;20035;-63
2021/03/06 02:18:05;;;;;;;27.90;17.55;;;21.20;56.60;;;;;;5066182;28;20691;-62
2021/03/06 02:20:49;;;;;;;28.48;17.48;;;21.20;56.60;;;;;;5094271;28;20059;-61
2021/03/06 02:23:56;;;;;;;25.50;17.33;;;21.20;56.60;;;;;;5094599;28;20060;-60
2021/03/06 02:26:50;;;;;;;25.95;17.40;;;21.20;56.60;;;;;;5093390;28;20521;-60
2021/03/06 02:29:52;;;;;;;29.15;17.20;;;21.20;56.60;;;;;;5089790;28;20037;-60
2021/03/06 02:32:28;;;;;;;23.98;17.13;;;21.20;56.60;;;;;;5073138;28;20136;-61
2021/03/06 02:35:13;;;;;;;26.48;17.25;;;21.20;56.60;;;;;;5058703;28;20028;-60
2021/03/06 02:37:44;;;;;;;20.92;16.15;;;21.20;56.70;;;;;;5076596;28;20036;-60
2021/03/06 02:40:12;;;;;;;23.60;16.55;;;21.20;56.60;;;;;;5075975;28;20036;-60
2021/03/06 02:42:40;;;;;;;23.15;15.75;;;21.20;56.60;;;;;;5094344;28;20043;-60
2021/03/06 02:45:07;;;;;;;30.13;16.48;;;21.20;56.60;;;;;;5074504;28;20020;-60
2021/03/06 02:47:34;;;;;;;29.48;17.27;;;21.20;56.60;;;;;;5082685;28;20114;-60
2021/03/06 02:50:02;;;;;;;22.83;15.48;;;21.10;56.60;;;;;;5075582;28;20119;-60
2021/03/06 02:52:28;;;;;;;19.17;14.25;;;21.20;56.60;;;;;;5094288;28;20043;-60
2021/03/06 02:54:54;;;;;;;22.15;15.02;;;21.10;56.60;;;;;;5075706;28;20028;-60
2021/03/06 02:57:33;;;;;;;24.88;15.23;;;21.20;56.60;;;;;;5076076;28;20024;-60
2021/03/06 03:00:20;;;;;;;23.40;14.82;;;21.20;56.60;;;;;;5093414;28;20389;-60
2021/03/06 03:03:08;;;;;;;24.83;15.20;;;21.10;56.60;;;;;;5075173;28;20394;-60
2021/03/06 03:05:39;;;;;;;28.48;16.00;;;21.10;56.50;;;;;;5072892;28;20047;-60
2021/03/06 03:08:25;;;;;;;22.23;15.10;;;21.10;56.50;;;;;;5109803;28;20028;-61
2021/03/06 03:10:55;;;;;;;22.95;13.73;;;21.10;56.50;;;;;;5093684;28;22171;-60
2021/03/06 03:13:29;;;;;;;31.95;15.85;;;21.10;56.50;;;;;;5093373;28;20468;-59
2021/03/06 03:16:07;;;;;;;25.25;15.75;;;21.20;56.60;;;;;;5058450;28;20040;-59
2021/03/06 03:18:43;;;;;;;20.75;14.30;;;21.10;56.60;;;;;;5093028;28;20020;-60
2021/03/06 03:21:14;;;;;;;27.85;14.45;;;21.10;56.50;;;;;;5075239;28;20032;-60
2021/03/06 03:24:03;;;;;;;21.70;14.20;;;21.10;56.50;;;;;;5075576;28;20683;-59
2021/03/06 03:26:30;;;;;;;21.83;15.65;;;21.10;56.60;;;;;;5075565;28;20392;-60
2021/03/06 03:28:57;;;;;;;20.55;14.10;;;21.10;56.50;;;;;;5075547;28;20035;-59
2021/03/06 03:31:26;;;;;;;23.17;14.75;;;21.10;56.50;;;;;;5075606;28;20106;-60
2021/03/06 03:33:52;;;;;;;21.00;15.48;;;21.10;56.50;;;;;;5074502;28;20028;-60
2021/03/06 03:36:22;;;;;;;26.88;14.43;;;21.10;56.50;;;;;;5058355;28;20053;-60
2021/03/06 03:38:49;;;;;;;21.07;14.43;;;21.10;56.60;;;;;;5075001;28;20031;-59
2021/03/06 03:41:15;;;;;;;20.45;14.63;;;21.10;56.60;;;;;;5093552;28;20032;-60
2021/03/06 03:43:42;;;;;;;21.35;14.52;;;21.10;56.60;;;;;;5092642;28;20031;-61
2021/03/06 03:46:09;;;;;;;20.25;14.25;;;21.10;56.60;;;;;;5074376;28;20028;-60
2021/03/06 03:48:37;;;;;;;22.17;15.38;;;21.10;56.60;;;;;;5093064;28;20099;-61
2021/03/06 03:51:03;;;;;;;21.30;15.65;;;21.10;56.60;;;;;;5092070;28;20107;-60
2021/03/06 03:53:30;;;;;;;24.08;14.27;;;21.10;56.60;;;;;;5055096;28;20029;-60
2021/03/06 03:55:57;;;;;;;22.77;14.60;;;21.10;56.60;;;;;;5077222;28;20024;-60
2021/03/06 03:58:24;;;;;;;23.15;14.80;;;21.10;56.60;;;;;;5093286;28;20024;-60
2021/03/06 04:00:58;;;;;;;25.60;14.57;;;21.10;56.50;;;;;;5092286;28;20419;-61
2021/03/06 04:03:25;;;;;;;24.92;14.50;;;21.10;56.60;;;;;;5095974;28;20058;-60
2021/03/06 04:05:51;;;;;;;18.55;14.05;;;21.10;56.50;;;;;;5072569;28;20454;-60
2021/03/06 04:08:17;;;;;;;19.30;13.77;;;21.10;56.50;;;;;;5086745;28;20623;-60
2021/03/06 04:10:43;;;;;;;20.60;14.00;;;21.10;56.50;;;;;;5073427;28;20100;-60
2021/03/06 04:13:10;;;;;;;23.35;14.00;;;21.10;56.60;;;;;;5074127;28;20032;-60
2021/03/06 04:15:37;;;;;;;22.92;14.38;;;21.10;56.60;;;;;;5090944;28;20429;-60
2021/03/06 04:18:06;;;;;;;21.83;15.07;;;21.10;56.60;;;;;;5091706;28;20020;-60
2021/03/06 04:20:33;;;;;;;18.95;14.27;;;21.10;56.60;;;;;;5074120;28;20055;-60
2021/03/06 04:22:59;;;;;;;17.25;13.63;;;21.10;56.60;;;;;;5092367;28;20063;-60
2021/03/06 04:25:26;;;;;;;22.95;15.27;;;21.10;56.60;;;;;;5092559;28;20038;-61
2021/03/06 04:27:53;;;;;;;19.00;13.95;;;21.10;56.60;;;;;;5074558;28;20017;-60
2021/03/06 04:30:20;;;;;;;19.70;14.40;;;21.10;56.60;;;;;;5092574;28;20042;-60
2021/03/06 04:32:46;;;;;;;15.98;13.52;;;21.10;56.60;;;;;;5074370;28;20354;-60
2021/03/06 04:35:12;;;;;;;17.65;13.20;;;21.10;56.60;;;;;;5092905;28;20024;-61
2021/03/06 04:37:39;;;;;;;22.38;14.15;;;21.10;56.60;;;;;;5106692;28;20363;-60
2021/03/06 04:40:12;;;;;;;17.52;13.82;;;21.10;56.60;;;;;;5074532;28;20431;-60
2021/03/06 04:42:38;;;;;;;20.20;13.95;;;21.10;56.70;;;;;;5091910;28;20020;-60
2021/03/06 04:45:06;;;;;;;19.02;13.07;;;21.10;56.70;;;;;;5092361;28;20036;-60
2021/03/06 04:47:33;;;;;;;22.52;14.85;;;21.10;56.60;;;;;;5088057;28;20066;-60
2021/03/06 04:49:59;;;;;;;19.65;13.75;;;21.10;56.60;;;;;;5092341;28;20089;-60
2021/03/06 04:52:25;;;;;;;21.20;13.55;;;21.10;57.20;;;;;;5074162;28;20036;-60
2021/03/06 04:54:51;;;;;;;20.00;13.52;;;21.10;56.60;;;;;;5105883;28;20036;-60
2021/03/06 04:57:17;;;;;;;19.33;14.00;;;21.10;56.60;;;;;;5057510;28;20039;-60
2021/03/06 04:59:43;;;;;;;23.27;13.82;;;21.10;56.60;;;;;;5092369;28;20119;-60
2021/03/06 05:02:10;;;;;;;18.30;13.77;;;21.10;56.60;;;;;;5092228;28;20147;-60
2021/03/06 05:04:36;;;;;;;19.10;13.63;;;21.10;56.60;;;;;;5073799;28;20059;-60
2021/03/06 05:07:03;;;;;;;16.55;12.73;;;21.10;56.60;;;;;;5074546;28;20047;-60
2021/03/06 05:09:29;;;;;;;18.25;13.07;;;21.10;56.60;;;;;;5074151;28;20032;-59
2021/03/06 05:11:55;;;;;;;18.38;13.07;;;21.10;56.60;;;;;;5073011;28;20346;-61
2021/03/06 05:14:21;;;;;;;19.20;13.57;;;21.10;56.60;;;;;;5092033;28;20111;-60
2021/03/06 05:16:47;;;;;;;18.83;12.88;;;21.10;56.70;;;;;;5074079;28;20449;-60
2021/03/06 05:19:13;;;;;;;18.67;12.48;;;21.10;56.60;;;;;;5073935;28;20405;-60
2021/03/06 05:21:39;;;;;;;17.15;12.23;;;21.10;56.70;;;;;;5092199;28;20020;-60
2021/03/06 05:24:06;;;;;;;16.15;12.20;;;21.10;56.70;;;;;;5057513;28;20606;-60
2021/03/06 05:26:33;;;;;;;17.20;11.57;;;21.10;56.70;;;;;;5074462;28;20037;-60
2021/03/06 05:28:59;;;;;;;19.55;12.68;;;21.10;56.70;;;;;;5095740;28;20032;-61
2021/03/06 05:31:25;;;;;;;17.98;12.18;;;21.10;56.70;;;;;;5095679;28;20130;-60
2021/03/06 05:33:51;;;;;;;15.32;11.48;;;21.10;56.70;;;;;;5077561;28;20119;-59
2021/03/06 05:36:17;;;;;;;18.13;12.93;;;21.10;56.70;;;;;;5095824;28;20039;-59
2021/03/06 05:38:43;;;;;;;19.05;12.70;;;21.10;56.70;;;;;;5095871;28;20032;-60
2021/03/06 05:41:09;;;;;;;22.00;14.00;;;21.10;56.80;;;;;;5095385;28;20331;-59
2021/03/06 05:43:36;;;;;;;17.75;12.30;;;21.10;56.80;;;;;;5077493;28;20089;-59
2021/03/06 05:46:04;;;;;;;22.20;15.60;;;21.10;56.80;;;;;;5077230;28;20075;-60
2021/03/06 05:48:30;;;;;;;21.63;16.00;;;21.00;56.80;;;;;;5077620;28;20076;-60
2021/03/06 05:50:56;;;;;;;23.70;15.65;;;21.10;56.80;;;;;;5077283;28;20036;-60
2021/03/06 05:53:26;;;;;;;24.20;16.73;;;21.10;56.80;;;;;;5095757;28;20453;-65
2021/03/06 05:55:56;;;;;;;49.17;43.90;;;21.00;56.90;;;;;;5094851;28;20032;-65
2021/03/06 05:58:23;;;;;;;75.90;65.90;;;21.00;57.10;;;;;;5111308;28;20039;-59
2021/03/06 06:00:50;;;;;;;108.43;96.82;;;21.00;57.10;;;;;;5094196;28;20062;-58
2021/03/06 06:03:17;;;;;;;95.65;81.70;;;21.00;57.10;;;;;;5094493;28;20031;-59
2021/03/06 06:05:45;;;;;;;97.30;84.30;;;21.00;57.20;;;;;;5094748;28;20793;-59
2021/03/06 06:08:11;;;;;;;81.20;71.95;;;21.00;57.20;;;;;;5075932;28;20032;-57
2021/03/06 06:10:37;;;;;;;86.72;73.75;;;20.90;57.20;;;;;;5110148;28;20032;-58
2021/03/06 06:13:03;;;;;;;76.97;65.38;;;20.90;57.30;;;;;;5093520;28;20036;-57
2021/03/06 06:15:29;;;;;;;81.75;68.68;;;20.90;57.40;;;;;;5094037;28;20502;-57
2021/03/06 06:17:55;;;;;;;81.15;68.45;;;20.90;57.40;;;;;;5093483;28;20038;-57
2021/03/06 06:20:24;;;;;;;78.93;68.13;;;20.90;57.40;;;;;;5092159;28;20072;-58
2021/03/06 06:23:13;;;;;;;70.10;60.38;;;20.90;57.50;;;;;;5094051;28;20028;-57
2021/03/06 06:25:39;;;;;;;65.90;55.92;;;20.90;57.50;;;;;;5093851;28;20501;-58
2021/03/06 06:28:06;;;;;;;62.47;54.40;;;21.00;57.50;;;;;;5075502;28;20032;-57
2021/03/06 06:30:32;;;;;;;64.60;52.78;;;20.90;57.50;;;;;;5093501;28;20477;-58
2021/03/06 06:32:59;;;;;;;58.40;52.03;;;20.90;57.50;;;;;;5075979;28;20086;-58
2021/03/06 06:35:25;;;;;;;56.65;44.13;;;21.00;57.60;;;;;;5075425;28;20139;-58
2021/03/06 06:38:10;;;;;;;60.58;46.95;;;21.00;57.60;;;;;;5093764;28;20035;-58
2021/03/06 06:40:38;;;;;;;59.05;47.97;;;21.00;57.60;;;;;;5109372;28;20427;-59
2021/03/06 06:43:25;;;;;;;51.40;43.97;;;20.90;57.60;;;;;;5101737;28;20028;-58
2021/03/06 06:45:51;;;;;;;50.53;41.33;;;20.90;57.60;;;;;;5070572;28;20162;-58
2021/03/06 06:48:17;;;;;;;129.85;115.68;;;21.00;57.60;;;;;;5074463;28;20408;-59
2021/03/06 06:50:45;;;;;;;169.38;144.50;;;21.00;57.60;;;;;;5088610;28;20036;-60
2021/03/06 06:53:27;;;;;;;219.73;192.07;;;21.00;57.60;;;;;;5073130;28;20033;-60
2021/03/06 06:55:53;;;;;;;242.50;212.63;;;21.00;57.80;;;;;;5092788;28;20036;-58
2021/03/06 06:58:33;;;;;;;203.85;176.70;;;21.00;57.60;;;;;;5093050;28;20043;-58
2021/03/06 07:00:59;;;;;;;179.02;156.10;;;20.90;57.70;;;;;;5092926;28;20032;-57
2021/03/06 07:03:25;;;;;;;285.85;250.52;;;21.00;57.60;;;;;;5094473;28;20493;-66
2021/03/06 07:05:51;;;;;;;285.60;252.65;;;21.00;57.70;;;;;;5087877;28;20097;-63
2021/03/06 07:08:25;;;;;;;213.68;187.95;;;21.00;57.70;;;;;;5075185;28;20035;-62
2021/03/06 07:10:52;;;;;;;199.05;177.00;;;21.00;57.80;;;;;;5061209;28;20489;-62
2021/03/06 07:13:18;;;;;;;194.30;172.95;;;21.00;57.70;;;;;;5091535;28;20032;-62
2021/03/06 07:15:56;;;;;;;172.85;152.70;;;21.00;57.70;;;;;;5092189;28;20058;-63
2021/03/06 07:18:22;;;;;;;151.45;126.93;;;21.00;57.80;;;;;;5072425;28;20466;-63
2021/03/06 07:20:53;;;;;;;149.00;127.95;;;21.00;57.70;;;;;;5092128;28;20043;-60
2021/03/06 07:23:22;;;;;;;;;;;21.00;57.70;;;;;;5092883;28;20036;-62
2021/03/06 07:25:53;;;;;;;157.02;136.07;;;21.00;57.80;;;;;;5074514;28;19908;-59
2021/03/06 07:28:21;;;;;;;213.75;181.35;;;21.10;57.60;;;;;;5074266;28;20028;-60
2021/03/06 07:30:48;;;;;;;201.40;177.23;;;21.10;57.60;;;;;;5092793;28;20028;-60
2021/03/06 07:33:16;;;;;;;173.30;147.10;;;21.00;57.60;;;;;;5074634;28;20031;-60
2021/03/06 07:35:44;;;;;;;155.40;133.85;;;21.00;57.60;;;;;;5108420;28;20140;-60
2021/03/06 07:38:14;;;;;;;145.50;120.85;;;21.00;57.60;;;;;;5074144;28;20111;-60
2021/03/06 07:40:44;;;;;;;115.05;97.18;;;21.00;57.70;;;;;;5092325;28;20039;-59
2021/03/06 07:43:14;;;;;;;84.00;72.93;;;21.00;57.70;;;;;;5092618;28;20026;-60
2021/03/06 07:45:45;;;;;;;83.30;65.10;;;21.00;57.70;;;;;;5058286;28;20473;-60
2021/03/06 07:48:12;;;;;;;70.00;58.58;;;21.00;57.70;;;;;;5092420;28;20276;-60
2021/03/06 07:50:40;;;;;;;70.07;58.72;;;21.00;57.60;;;;;;5091553;28;20055;-59
2021/03/06 07:53:07;;;;;;;78.40;58.60;;;20.90;57.60;;;;;;5092390;28;20027;-60
2021/03/06 07:55:35;;;;;;;59.85;47.90;;;20.90;57.60;;;;;;5092275;28;20028;-60
2021/03/06 07:58:06;;;;;;;61.92;45.90;;;20.90;57.70;;;;;;5085347;28;20039;-62
2021/03/06 08:00:56;;;;;;;56.50;40.92;;;20.90;57.70;;;;;;5091816;28;20064;-62
2021/03/06 08:03:28;;;;;;;53.58;37.97;;;20.90;57.70;;;;;;5074553;28;20028;-62
2021/03/06 08:06:21;;;;;;;45.22;31.88;;;20.90;57.60;;;;;;5092418;28;20033;-62
2021/03/06 08:08:47;;;;;;;36.28;29.63;;;20.90;57.70;;;;;;5092036;28;20043;-62
2021/03/06 08:11:21;;;;;;;42.15;27.55;;;20.90;57.70;;;;;;5092250;28;20036;-62
2021/03/06 08:13:51;;;;;;;38.92;27.33;;;20.90;57.70;;;;;;5056496;28;20419;-62
2021/03/06 08:16:23;;;;;;;36.25;25.23;;;20.90;57.60;;;;;;5074647;28;20082;-62
2021/03/06 08:18:56;;;;;;;36.90;24.17;;;20.90;57.60;;;;;;5091981;28;20115;-62
2021/03/06 08:21:44;;;;;;;50.40;41.15;;;20.90;57.60;;;;;;5074445;28;20115;-66
2021/03/06 08:24:13;;;;;;;219.93;195.75;;;20.90;57.80;;;;;;5092509;28;20021;-68
2021/03/06 08:27:04;;;;;;;145.45;126.68;;;20.90;57.80;;;;;;5091847;28;20016;-56
2021/03/06 08:29:35;;;;;;;147.80;127.97;;;20.90;57.90;;;;;;5082649;28;20024;-55
2021/03/06 08:32:12;;;;;;;135.35;115.45;;;20.90;57.90;;;;;;5082207;28;20636;-60
2021/03/06 08:34:55;;;;;;;124.85;104.72;;;20.90;57.80;;;;;;5053442;28;20024;-60
2021/03/06 08:37:25;;;;;;;127.32;104.78;;;20.90;57.90;;;;;;5089271;28;20060;-59
2021/03/06 08:39:58;;;;;;;110.72;94.18;;;20.90;57.80;;;;;;5091473;28;20059;-60
2021/03/06 08:42:31;;;;;;;98.28;84.32;;;20.90;57.90;;;;;;5092380;28;20380;-62
2021/03/06 08:45:00;;;;;;;95.07;82.35;;;21.00;57.90;;;;;;5091769;28;20099;-60
2021/03/06 08:47:31;;;;;;;92.03;77.72;;;21.00;57.90;;;;;;5072619;28;20036;-62
2021/03/06 08:50:05;;;;;;;83.68;70.53;;;20.90;57.90;;;;;;5088552;28;20381;-62
2021/03/06 08:52:31;;;;;;;76.72;62.97;;;21.00;58.00;;;;;;5055709;28;20032;-61
2021/03/06 08:54:58;;;;;;;71.88;58.22;;;21.00;57.90;;;;;;5102425;28;20032;-62
2021/03/06 08:57:38;;;;;;;64.68;53.13;;;21.00;57.90;;;;;;5072876;28;20044;-60
2021/03/06 09:00:49;;;;;;;54.17;45.60;;;21.00;57.90;;;;;;5107094;28;20532;-62
2021/03/06 09:03:18;;;;;;;54.38;44.20;;;21.10;57.90;;;;;;5032583;28;20180;-60
2021/03/06 09:05:47;;;;;;;44.50;33.97;;;21.10;57.80;;;;;;5012258;28;20041;-58
2021/03/06 09:08:13;;;;;;;40.10;28.50;;;21.10;57.70;;;;;;5010929;28;20049;-56
2021/03/06 09:10:43;;;;;;;44.20;31.67;;;21.10;57.70;;;;;;5028640;28;20519;-56
2021/03/06 09:13:23;;;;;;;45.45;36.15;;;21.10;57.70;;;;;;5032284;28;20114;-57
2021/03/06 09:15:52;;;;;;;49.80;40.70;;;21.10;57.80;;;;;;5032778;28;20049;-57
2021/03/06 09:18:24;;;;;;;51.58;40.95;;;21.10;57.70;;;;;;5029306;28;20032;-57
2021/03/06 09:20:52;;;;;;;51.60;44.30;;;21.20;57.80;;;;;;5031370;28;20042;-59
2021/03/06 09:23:23;;;;;;;52.97;44.20;;;21.20;57.70;;;;;;5027811;28;20463;-59
2021/03/06 09:25:50;;;;;;;52.85;43.95;;;21.20;57.70;;;;;;5031766;28;20030;-57
2021/03/06 09:28:25;;;;;;;54.08;44.88;;;21.20;57.70;;;;;;5008867;28;20053;-60
2021/03/06 09:30:52;;;;;;;54.60;45.30;;;21.30;57.70;;;;;;5010503;28;20120;-57
2021/03/06 09:33:34;;;;;;;57.38;47.45;;;21.30;57.60;;;;;;5029382;28;20032;-57
2021/03/06 09:36:18;;;;;;;56.65;48.50;;;21.40;57.60;;;;;;5088016;28;20036;-56
2021/03/06 09:38:57;;;;;;;54.38;46.78;;;21.40;57.40;;;;;;5071478;28;20718;-56
2021/03/06 09:41:28;;;;;;;56.13;45.60;;;21.50;57.30;;;;;;5073995;28;20477;-58
2021/03/06 09:43:57;;;;;;;53.10;47.38;;;21.50;57.20;;;;;;5057366;28;20032;-57
2021/03/06 09:46:27;;;;;;;55.78;44.33;;;21.50;57.10;;;;;;5074535;28;20050;-57
2021/03/06 09:49:00;;;;;;;54.85;45.88;;;21.50;57.10;;;;;;5092224;28;20027;-59
2021/03/06 09:51:53;;;;;;;50.88;43.60;;;21.50;57.00;;;;;;5094029;28;20039;-61
2021/03/06 09:54:22;;;;;;;58.08;45.70;;;21.50;57.00;;;;;;5106114;27;20036;-60
2021/03/06 09:57:03;;;;;;;53.10;44.35;;;21.60;56.90;;;;;;5091791;28;20078;-60
2021/03/06 09:59:38;;;;;;;53.33;43.28;;;21.50;56.80;;;;;;5090496;28;20039;-60
2021/03/06 10:02:15;;;;;;;45.65;40.42;;;21.50;56.70;;;;;;5093009;28;20095;-60
2021/03/06 10:04:45;;;;;;;49.90;39.63;;;21.60;56.80;;;;;;5073137;28;20032;-59
2021/03/06 10:07:12;;;;;;;;;;;21.60;56.80;;;;;;5092789;28;20039;-59
2021/03/06 10:09:38;;;;;;;39.15;34.60;;;21.60;57.00;;;;;;5074543;28;19908;-60
2021/03/06 10:12:10;;;;;;;183.10;160.80;;;21.60;56.60;;;;;;5073992;28;20099;-56
2021/03/06 10:14:36;;;;;;;184.45;157.20;;;21.70;56.60;;;;;;5092483;28;20032;-57
2021/03/06 10:17:09;;;;;;;108.97;96.40;;;21.70;56.40;;;;;;5093111;28;20032;-56
2021/03/06 10:19:50;;;;;;;92.68;78.20;;;21.70;56.40;;;;;;5072021;28;20055;-55
2021/03/06 10:22:19;;;;;;;72.70;58.15;;;21.70;56.30;;;;;;5107617;27;20027;-56
2021/03/06 10:25:03;;;;;;;55.20;43.25;;;21.80;56.30;;;;;;5092828;28;20082;-53
2021/03/06 10:27:39;;;;;;;48.67;32.42;;;21.80;56.10;;;;;;5092112;28;20142;-53
2021/03/06 10:30:17;;;;;;;70.28;53.20;;;21.80;56.00;;;;;;5074193;28;20032;-56
2021/03/06 10:32:46;;;;;;;45.47;29.48;;;21.80;56.00;;;;;;5089855;28;20100;-55
2021/03/06 10:35:42;;;;;;;33.38;21.50;;;21.80;55.80;;;;;;5072991;28;20024;-55
2021/03/06 10:38:25;;;;;;;26.05;16.13;;;21.80;55.80;;;;;;5089996;28;20027;-61
2021/03/06 10:41:02;;;;;;;23.15;14.40;;;21.80;55.60;;;;;;5086922;28;20508;-61
2021/03/06 10:43:33;;;;;;;25.30;13.90;;;21.80;55.40;;;;;;5090509;28;20020;-61
2021/03/06 10:46:17;;;;;;;22.85;13.50;;;21.80;55.30;;;;;;5089229;28;20130;-64
2021/03/06 10:48:59;;;;;;;21.70;12.95;;;21.80;55.40;;;;;;5091651;28;20028;-62
2021/03/06 10:51:43;;;;;;;21.60;11.65;;;21.70;55.30;;;;;;5090536;28;20109;-61
2021/03/06 10:54:10;;;;;;;24.55;13.88;;;21.70;55.30;;;;;;5056257;28;20106;-61
2021/03/06 10:56:36;;;;;;;19.48;12.30;;;21.70;55.30;;;;;;5089343;28;20504;-61
2021/03/06 10:59:03;;;;;;;21.83;12.55;;;21.70;55.30;;;;;;5093142;28;20032;-61
2021/03/06 11:01:33;;;;;;;21.33;12.20;;;21.70;55.30;;;;;;5090277;28;20028;-62
2021/03/06 11:04:00;;;;;;;24.45;13.05;;;21.70;55.40;;;;;;5070879;28;20028;-62
2021/03/06 11:06:26;;;;;;;24.15;12.55;;;21.70;55.40;;;;;;5090365;28;20036;-63
2021/03/06 11:09:00;;;;;;;17.80;11.85;;;21.60;55.30;;;;;;5087255;28;20099;-63
2021/03/06 11:11:26;;;;;;;20.45;12.50;;;21.60;55.30;;;;;;5089152;28;20416;-62
2021/03/06 11:13:52;;;;;;;24.83;13.82;;;21.60;55.20;;;;;;5071789;28;20024;-62
2021/03/06 11:16:35;;;;;;;25.08;15.25;;;21.60;55.30;;;;;;5071752;28;20339;-61
2021/03/06 11:19:02;;;;;;;28.58;17.73;;;21.60;55.30;;;;;;5070395;28;20036;-61
2021/03/06 11:21:28;;;;;;;24.25;15.40;;;21.60;55.10;;;;;;5104996;28;20028;-62
2021/03/06 11:23:54;;;;;;;25.10;15.77;;;21.60;55.10;;;;;;5071071;28;20032;-61
2021/03/06 11:26:20;;;;;;;23.52;13.98;;;21.60;55.10;;;;;;5070986;28;20031;-62
2021/03/06 11:28:46;;;;;;;24.77;14.07;;;21.60;55.30;;;;;;5089998;28;20047;-60
2021/03/06 11:31:12;;;;;;;21.30;12.75;;;21.60;55.20;;;;;;5071127;28;20035;-62
2021/03/06 11:33:38;;;;;;;32.30;19.42;;;21.60;55.20;;;;;;5088521;28;20023;-62
2021/03/06 11:36:04;;;;;;;33.72;18.85;;;21.50;55.20;;;;;;5089966;28;20055;-60
2021/03/06 11:38:30;;;;;;;22.50;15.52;;;21.60;55.10;;;;;;5089158;28;20028;-61
2021/03/06 11:40:57;;;;;;;30.58;16.35;;;21.50;54.90;;;;;;5089263;28;20035;-61
2021/03/06 11:43:23;;;;;;;27.15;16.02;;;21.50;54.80;;;;;;5089582;28;20028;-60
2021/03/06 11:45:49;;;;;;;29.90;16.75;;;21.50;55.00;;;;;;5071477;28;20120;-62
2021/03/06 11:48:16;;;;;;;25.40;14.82;;;21.50;55.00;;;;;;5089703;28;20040;-60
2021/03/06 11:50:46;;;;;;;22.00;12.95;;;21.50;54.90;;;;;;5089930;28;20694;-60
2021/03/06 11:53:12;;;;;;;31.17;15.70;;;21.50;54.70;;;;;;5105511;28;20565;-62
2021/03/06 11:55:38;;;;;;;26.80;14.60;;;21.50;54.70;;;;;;5071344;28;20424;-60
2021/03/06 11:58:04;;;;;;;26.02;12.77;;;21.50;54.80;;;;;;5090028;28;20047;-59
2021/03/06 12:00:32;;;;;;;30.05;13.88;;;21.50;54.80;;;;;;5091800;28;20107;-59
2021/03/06 12:02:58;;;;;;;26.30;13.82;;;21.60;54.90;;;;;;5087219;28;20027;-60
2021/03/06 12:05:25;;;;;;;32.72;14.55;;;21.50;54.80;;;;;;5090032;28;20125;-58
2021/03/06 12:07:52;;;;;;;27.30;14.88;;;21.60;54.90;;;;;;5087595;28;20013;-57
2021/03/06 12:10:28;;;;;;;28.35;15.02;;;21.60;54.90;;;;;;5089345;28;20103;-61
2021/03/06 12:12:56;;;;;;;26.90;16.58;;;21.60;54.80;;;;;;5071204;28;20028;-60
2021/03/06 12:15:23;;;;;;;26.40;15.88;;;21.60;54.70;;;;;;5088994;28;20040;-60
2021/03/06 12:17:49;;;;;;;31.00;15.43;;;21.60;54.50;;;;;;5088984;28;20036;-59
2021/03/06 12:20:17;;;;;;;39.22;16.33;;;21.70;54.40;;;;;;5071003;28;20145;-60
2021/03/06 12:22:44;;;;;;;31.05;14.57;;;21.70;54.50;;;;;;5069823;28;20024;-59
2021/03/06 12:25:11;;;;;;;34.40;14.65;;;21.70;54.50;;;;;;5053898;28;20420;-57
2021/03/06 12:27:38;;;;;;;40.92;14.25;;;21.70;54.70;;;;;;5089373;28;20424;-60
2021/03/06 12:30:13;;;;;;;23.83;11.70;;;21.70;54.50;;;;;;5070932;28;20087;-61
2021/03/06 12:32:40;;;;;;;25.90;12.07;;;21.70;54.50;;;;;;5069069;28;20032;-62
2021/03/06 12:35:07;;;;;;;27.15;11.25;;;21.70;54.50;;;;;;5088153;28;20032;-58
2021/03/06 12:37:34;;;;;;;24.35;12.18;;;21.80;54.40;;;;;;5092705;28;20449;-56
2021/03/06 12:40:00;;;;;;;24.67;11.05;;;21.70;54.20;;;;;;5074013;28;20031;-55